Dades meteomassalio
Diari Summary for Gener 15, 2018 Units:  Metric    English   Both
« Previous Day
Next Day »
Diari Semanal Mensual Anual Personalitzat
  Maxima: Minima: Mijana:
Temperatura: -17.8 °C -17.8 °C -15.3 °C
Rosada: -17.8 °C -19.3 °C -17.4 °C
Humitat: Humidity % 61 % 77 %
Velocitat del vent: 0 km/h 0 km/h 11.9 km/h
Racha vent: 0 km/h - -
Vent:- - WNW
Pressio: 0 hPa 34703.1 hPa -
Pluja: 0 mm    
Historical Graphs
 
 
Tabular Data for Gener 15, 2018
Time Temperature Dew Point Pressure Wind Wind Speed Wind Gust Humidity Rainfall Rate (Hourly) solar Conditions
-17.8 °C -17.8 °C 0 hPa Calm     Humidity % 0 mm SolarRadiationWatts/m^2 W/m2 Conditions
00:06 -16.8 °C -18.4 °C 34716.7 hPa WNW 11.9 km/h 11.9 km/h 82 % 0 mm 0.0 W/m2 CLR
00:12 -17.2 °C -18.7 °C 34716.7 hPa WNW 15 km/h 15 km/h 82 % 0 mm 0.0 W/m2 CLR
00:23 -16.8 °C -18.3 °C 34716.7 hPa WNW 20.9 km/h 20.9 km/h 83 % 0 mm 0.0 W/m2 CLR
00:28 -16.6 °C -18.1 °C 34716.7 hPa WNW 9 km/h 9 km/h 82 % 0 mm 0.0 W/m2 CLR
00:37 -16.8 °C -18.4 °C 34716.7 hPa Calm     82 % 0 mm 0.0 W/m2 CLR
00:48 -16.8 °C -18.4 °C 34716.7 hPa WNW 3.1 km/h 3.1 km/h 81 % 0 mm 0.0 W/m2 CLR
00:54 -16.8 °C -18.4 °C 34716.7 hPa Calm     81 % 0 mm 0.0 W/m2 CLR
01:01 -17.2 °C -18.7 °C 34716.7 hPa WNW 10.3 km/h 10.3 km/h 82 % 0 mm 0.0 W/m2 CLR
01:07 -17.2 °C -18.6 °C 34716.7 hPa West 15.6 km/h 15.6 km/h 83 % 0 mm 0.0 W/m2 CLR
01:17 -17.2 °C -18.6 °C 34716.7 hPa West 5.1 km/h 5.1 km/h 83 % 0 mm 0.0 W/m2 CLR
01:29 -17.2 °C -18.7 °C 34716.7 hPa Calm     82 % 0 mm 0.0 W/m2 CLR
01:36 -17.4 °C -18.9 °C 34716.7 hPa WNW 12.9 km/h 12.9 km/h 83 % 0 mm 0.0 W/m2 CLR
01:43 -17.2 °C -18.5 °C 34716.7 hPa WNW 15 km/h 15 km/h 84 % 0 mm 0.0 W/m2 CLR
01:49 -17.2 °C -18.6 °C 34716.7 hPa Calm     83 % 0 mm 0.0 W/m2 CLR
01:57 -17.2 °C -18.6 °C 34716.7 hPa Calm     83 % 0 mm 0.0 W/m2 CLR
02:04 -16.8 °C -18.3 °C 34716.7 hPa WNW 29.8 km/h 29.8 km/h 83 % 0 mm 0.0 W/m2 CLR
02:24 -16.6 °C -18.2 °C 34716.7 hPa NW 9 km/h 9 km/h 81 % 0 mm 0.0 W/m2 CLR
02:30 -16.6 °C -18.2 °C 34703.1 hPa Calm     81 % 0 mm 0.0 W/m2 CLR
02:37 -16.2 °C -17.9 °C 34716.7 hPa West 9 km/h 9 km/h 81 % 0 mm 0.0 W/m2 CLR
02:44 -16.6 °C -18.1 °C 34716.7 hPa WNW 9 km/h 9 km/h 82 % 0 mm 0.0 W/m2 CLR
02:51 -16.6 °C -18.1 °C 34716.7 hPa NW 23.8 km/h 23.8 km/h 82 % 0 mm 0.0 W/m2 CLR
02:59 -16.6 °C -18.3 °C 34716.7 hPa NW 20.9 km/h 20.9 km/h 80 % 0 mm 0.0 W/m2 CLR
03:06 -16.8 °C -18.6 °C 34716.7 hPa NW 23.8 km/h 23.8 km/h 80 % 0 mm 0.0 W/m2 CLR
03:32 -16.2 °C -17.9 °C 34726.8 hPa West 17.9 km/h 17.9 km/h 81 % 0 mm 0.0 W/m2 CLR
03:42 -16.2 °C -17.9 °C 34726.8 hPa West 9 km/h 9 km/h 81 % 0 mm 0.0 W/m2 CLR
04:02 -16.2 °C -18.1 °C 34726.8 hPa NW 20.9 km/h 20.9 km/h 79 % 0 mm 0.0 W/m2 CLR
04:13 -15.9 °C -17.9 °C 34726.8 hPa WNW 29.8 km/h 29.8 km/h 78 % 0 mm 0.0 W/m2 CLR
04:25 -15.6 °C -17.6 °C 34726.8 hPa WNW 26.9 km/h 26.9 km/h 78 % 0 mm 0.0 W/m2 CLR
04:43 -15.9 °C -17.7 °C 34726.8 hPa West 23.8 km/h 23.8 km/h 79 % 0 mm 0.0 W/m2 CLR
04:56 -16.2 °C -17.9 °C 34740.4 hPa WNW 3.1 km/h 3.1 km/h 80 % 0 mm 0.0 W/m2 CLR
05:03 -16.6 °C -18.2 °C 34740.4 hPa WSW 9 km/h 9 km/h 81 % 0 mm 0.0 W/m2 CLR
05:08 -16.6 °C -18.2 °C 34740.4 hPa WSW 6 km/h 6 km/h 81 % 0 mm 0.0 W/m2 CLR
05:18 -16.6 °C -18.1 °C 34740.4 hPa WNW 17.9 km/h 17.9 km/h 82 % 0 mm 0.0 W/m2 CLR
05:31 -16.8 °C -18.3 °C 34740.4 hPa West 7.7 km/h 7.7 km/h 83 % 0 mm 0.0 W/m2 CLR
05:48 -17.2 °C -18.6 °C 34750.5 hPa WNW 9 km/h 9 km/h 83 % 0 mm 0.0 W/m2 CLR
05:56 -16.8 °C -18.4 °C 34750.5 hPa NW 9 km/h   82 % 0 mm 0.0 W/m2 CLR
06:05 -16.8 °C -18.4 °C 34750.5 hPa Calm     82 % 0 mm 0.0 W/m2 CLR
06:11 -17.2 °C -18.7 °C 34750.5 hPa Calm     82 % 0 mm 0.0 W/m2 CLR
06:19 -17.2 °C -18.7 °C 34750.5 hPa Calm     82 % 0 mm 0.0 W/m2 CLR
06:40 -17.4 °C -18.9 °C 34750.5 hPa WNW 11.9 km/h 11.9 km/h 83 % 0 mm 0.0 W/m2 CLR
06:47 -17.4 °C -19 °C 34750.5 hPa West 15 km/h 15 km/h 82 % 0 mm 0.0 W/m2 CLR
06:55 -17.8 °C -19.3 °C 34760.7 hPa WNW 15.6 km/h 15.6 km/h 82 % 0 mm 0.0 W/m2 CLR
07:18 -17.8 °C -19.3 °C 34774.2 hPa West 11.9 km/h 11.9 km/h 82 % 0 mm 0.0 W/m2 CLR
07:39 -17.4 °C -18.9 °C 34784.4 hPa West 12.9 km/h 12.9 km/h 83 % 0 mm 0.0 W/m2 CLR
07:48 -17.4 °C -18.9 °C 34784.4 hPa West 15.6 km/h 15.6 km/h 83 % 0 mm 0.0 W/m2 CLR
08:08 -17.2 °C -18.6 °C 34797.9 hPa West 23.8 km/h 23.8 km/h 83 % 0 mm 0.0 W/m2 CLR
08:21 -16.6 °C -18.1 °C 34797.9 hPa West 29.8 km/h 29.8 km/h 82 % 0 mm 0.0 W/m2 OVC
08:34 -16.6 °C -18.2 °C 34808.1 hPa WNW 23.8 km/h 23.8 km/h 81 % 0 mm 7.0 W/m2 BKN
08:41 -16.6 °C -18.2 °C 34808.1 hPa West 26.9 km/h 26.9 km/h 81 % 0 mm 11.0 W/m2 BKN
08:54 -16.6 °C -18.2 °C 34808.1 hPa West 17.9 km/h 17.9 km/h 81 % 0 mm 16.0 W/m2 BKN
09:00 -16.6 °C -18.2 °C 34808.1 hPa West 10.3 km/h 10.3 km/h 81 % 0 mm 19.0 W/m2 BKN
09:27 -16.8 °C -18.4 °C 34818.2 hPa Calm   1.3 km/h 82 % 0 mm 47.0 W/m2 SCT
09:34 -16.2 °C -17.8 °C 34831.8 hPa West 9 km/h 9 km/h 82 % 0 mm 47.0 W/m2 SCT
09:43 -15.9 °C -17.6 °C 34831.8 hPa West 6 km/h 6 km/h 81 % 0 mm 53.0 W/m2 SCT
09:48 -15.9 °C -17.6 °C 34831.8 hPa Calm     81 % 0 mm 58.0 W/m2 SCT
09:54 -15.6 °C -17.3 °C 34831.8 hPa Calm     81 % 0 mm 67.0 W/m2 SCT
10:01 -15.3 °C -17 °C 34841.9 hPa Calm     81 % 0 mm 77.0 W/m2 FEW
10:13 -14.7 °C -16.7 °C 34841.9 hPa NW 26.9 km/h 26.9 km/h 78 % 0 mm 113.0 W/m2 CLR
10:20 -14.4 °C -16.6 °C 34841.9 hPa NW 26.9 km/h 26.9 km/h 76 % 0 mm 137.0 W/m2 CLR
10:26 -14.1 °C -16.5 °C 34852.1 hPa WNW 23.8 km/h 23.8 km/h 74 % 0 mm 167.0 W/m2 CLR
10:34 -13.8 °C -16.3 °C 34852.1 hPa WNW 3.1 km/h 3.1 km/h 73 % 0 mm 125.0 W/m2 CLR
10:53 -13.4 °C -16.1 °C 34865.6 hPa WNW 20.9 km/h 20.9 km/h 72 % 0 mm 114.0 W/m2 CLR
11:03 -13.4 °C -16.1 °C 34865.6 hPa NW 23.3 km/h 23.3 km/h 72 % 0 mm 132.0 W/m2 CLR
11:31 -13.2 °C -15.8 °C 34875.8 hPa NW 29.8 km/h 29.8 km/h 72 % 0 mm 185.0 W/m2 CLR
11:51 -12.8 °C -15.5 °C 34865.6 hPa NNW 35.7 km/h 35.7 km/h 72 % 0 mm 225.0 W/m2 CLR
12:00 -12.8 °C -15.5 °C 34865.6 hPa NW 29.8 km/h 29.8 km/h 72 % 0 mm 306.0 W/m2 CLR
12:17 -12.8 °C -15.7 °C 34865.6 hPa NW 29.8 km/h 29.8 km/h 70 % 0 mm 186.0 W/m2 CLR
12:52 -12.6 °C -15.7 °C 34852.1 hPa NW 33.6 km/h 33.6 km/h 68 % 0 mm 304.0 W/m2 CLR
13:21 -12.2 °C -15.4 °C 34831.8 hPa North 47.6 km/h 47.6 km/h 67 % 0 mm 260.0 W/m2 CLR
13:30 -11.9 °C -15.2 °C 34818.2 hPa NNW 35.7 km/h 35.7 km/h 67 % 0 mm 230.0 W/m2 CLR
14:01 -11.6 °C -15.2 °C 34808.1 hPa WNW 26.9 km/h 26.9 km/h 64 % 0 mm 619.0 W/m2 CLR
14:09 -11.6 °C -15.5 °C 34808.1 hPa NW 23.8 km/h 23.8 km/h 62 % 0 mm 524.0 W/m2 CLR
14:14 -11.6 °C -15.4 °C 34808.1 hPa NNW 29.8 km/h 29.8 km/h 63 % 0 mm 547.0 W/m2 CLR
14:32 -11.6 °C -15.2 °C 34797.9 hPa North 23.8 km/h 23.8 km/h 64 % 0 mm 165.0 W/m2 CLR
14:50 -11.9 °C -15.7 °C 34797.9 hPa NNW 23.8 km/h 23.8 km/h 63 % 0 mm 209.0 W/m2 CLR
14:59 -11.6 °C -15.6 °C 34797.9 hPa NNW 23.8 km/h 23.8 km/h 61 % 0 mm 346.0 W/m2 CLR
15:06 -11.3 °C -15.3 °C 34784.4 hPa NW 23.8 km/h 23.8 km/h 61 % 0 mm 396.0 W/m2 CLR
15:16 -11.3 °C -15.3 °C 34784.4 hPa NNW 25.9 km/h 25.9 km/h 61 % 0 mm 374.0 W/m2 CLR
15:21 -11.3 °C -15.2 °C 34784.4 hPa NNW 29.8 km/h 29.8 km/h 62 % 0 mm 325.0 W/m2 CLR
15:37 -11.3 °C -15.1 °C 34784.4 hPa NNE 29.8 km/h 29.8 km/h 63 % 0 mm 248.0 W/m2 CLR
15:44 -11.6 °C -15.4 °C 34784.4 hPa NNE 29.8 km/h 29.8 km/h 63 % 0 mm 174.0 W/m2 CLR
15:59 -11.9 °C -15.7 °C 34784.4 hPa NNW 20.9 km/h 20.9 km/h 63 % 0 mm 149.0 W/m2 CLR
16:11 -11.9 °C -15.6 °C 34784.4 hPa NW 23.8 km/h 23.8 km/h 64 % 0 mm 134.0 W/m2 CLR
16:28 -11.9 °C -15.6 °C 34784.4 hPa North 20.9 km/h 20.9 km/h 64 % 0 mm 139.0 W/m2 CLR
16:33 -11.9 °C -15.6 °C 34797.9 hPa NNE 23.8 km/h 23.8 km/h 64 % 0 mm 102.0 W/m2 CLR
16:47 -12.2 °C -15.6 °C 34797.9 hPa Calm     66 % 0 mm 88.0 W/m2 CLR
17:02 -12.6 °C -15.9 °C 34797.9 hPa Calm     66 % 0 mm 69.0 W/m2 FEW
17:16 -12.6 °C -15.8 °C 34784.4 hPa Calm     67 % 0 mm 39.0 W/m2 BKN
17:25 -12.6 °C -15.8 °C 34784.4 hPa Calm     67 % 0 mm 25.0 W/m2 BKN
17:47 -13.4 °C -16.6 °C 34797.9 hPa Calm     67 % 0 mm 5.0 W/m2 BKN
17:55 -13.4 °C -16.6 °C 34808.1 hPa Calm     68 % 0 mm 0.0 W/m2 OVC
18:21 -14.1 °C -16.8 °C 34808.1 hPa Calm     71 % 0 mm 0.0 W/m2 CLR
18:44 -14.4 °C -17 °C 34808.1 hPa Calm     72 % 0 mm 0.0 W/m2 CLR
18:51 -14.4 °C -16.9 °C 34808.1 hPa Calm     73 % 0 mm 0.0 W/m2 CLR
19:09 -14.4 °C -16.8 °C 34797.9 hPa WNW 6 km/h 6 km/h 74 % 0 mm 0.0 W/m2 CLR
19:15 -14.7 °C -17.1 °C 34797.9 hPa WNW 9 km/h 9 km/h 74 % 0 mm 0.0 W/m2 CLR
19:23 -14.7 °C -17.1 °C 34797.9 hPa West 9 km/h 9 km/h 74 % 0 mm 0.0 W/m2 CLR
19:46 -14.7 °C -16.8 °C 34797.9 hPa Calm     76 % 0 mm 0.0 W/m2 CLR
19:53 -15 °C -17.1 °C 34797.9 hPa Calm     77 % 0 mm 0.0 W/m2 CLR
20:04 -15.3 °C -17.2 °C 34818.2 hPa Calm     79 % 0 mm 0.0 W/m2 CLR
20:10 -15.6 °C -17.4 °C 34818.2 hPa Calm     79 % 0 mm 0.0 W/m2 CLR
20:19 -15.6 °C -17.3 °C 34808.1 hPa West 9 km/h 9 km/h 80 % 0 mm 0.0 W/m2 CLR
20:38 -15.6 °C -17.3 °C 34808.1 hPa West 3.1 km/h 3.1 km/h 81 % 0 mm 0.0 W/m2 CLR
21:01 -16.2 °C -17.7 °C 34818.2 hPa Calm     83 % 0 mm 0.0 W/m2 CLR
21:07 -16.2 °C -17.7 °C 34818.2 hPa Calm     83 % 0 mm 0.0 W/m2 CLR
21:19 -16.2 °C -17.6 °C 34808.1 hPa Calm     84 % 0 mm 0.0 W/m2 CLR
21:32 -16.6 °C -17.7 °C 34818.2 hPa Calm     86 % 0 mm 0.0 W/m2 CLR
21:38 -16.6 °C -17.7 °C 34818.2 hPa Calm     86 % 0 mm 0.0 W/m2 CLR
21:46 -16.6 °C -17.7 °C 34818.2 hPa Calm     86 % 0 mm 0.0 W/m2 CLR
21:47 -16.6 °C -17.7 °C 34831.8 hPa Calm     86 % 0 mm 0.0 W/m2 CLR
21:48 -16.6 °C -17.7 °C 34831.8 hPa Calm     86 % 0 mm 0.0 W/m2 CLR
21:49 -16.6 °C -17.7 °C 34831.8 hPa Calm     86 % 0 mm 0.0 W/m2 CLR
21:50 -16.6 °C -17.7 °C 34831.8 hPa Calm     86 % 0 mm 0.0 W/m2 CLR
21:58 -16.6 °C -17.7 °C 34831.8 hPa Calm     86 % 0 mm 0.0 W/m2 CLR
22:03 -16.6 °C -17.7 °C 34818.2 hPa Calm     86 % 0 mm 0.0 W/m2 CLR
22:07 -16.6 °C -17.6 °C 34818.2 hPa Calm     87 % 0 mm 0.0 W/m2 CLR
22:09 -16.6 °C -17.6 °C 34818.2 hPa Calm     87 % 0 mm 0.0 W/m2 CLR
22:16 -16.8 °C -17.9 °C 34831.8 hPa Calm     87 % 0 mm 0.0 W/m2 CLR
22:21 -17.2 °C -18.2 °C 34818.2 hPa Calm     87 % 0 mm 0.0 W/m2 CLR
22:33 -17.2 °C -18.2 °C 34818.2 hPa Calm     87 % 0 mm 0.0 W/m2 CLR
23:09 -17.4 °C -18.4 °C 34818.2 hPa Calm     88 % 0 mm 0.0 W/m2 CLR
Lo Temps de Massalio
Compliments of Weather Underground - 768 kb